sensor_id;sensor_type;location;lat;lon;timestamp;temperature;humidity
41876;DHT22;27555;50.808;4.402;2022-10-31T00:01:14;15.60;99.90
41876;DHT22;27555;50.808;4.402;2022-10-31T00:03:40;15.60;99.90
41876;DHT22;27555;50.808;4.402;2022-10-31T00:06:05;15.80;99.90
41876;DHT22;27555;50.808;4.402;2022-10-31T00:08:31;15.80;99.90
41876;DHT22;27555;50.808;4.402;2022-10-31T00:10:57;15.90;99.90
41876;DHT22;27555;50.808;4.402;2022-10-31T00:13:22;15.90;99.90
41876;DHT22;27555;50.808;4.402;2022-10-31T00:15:48;15.90;99.90
41876;DHT22;27555;50.808;4.402;2022-10-31T00:18:15;15.90;99.90
41876;DHT22;27555;50.808;4.402;2022-10-31T00:20:41;15.70;99.90
41876;DHT22;27555;50.808;4.402;2022-10-31T00:23:06;15.70;99.90
41876;DHT22;27555;50.808;4.402;2022-10-31T00:25:35;15.70;99.90
41876;DHT22;27555;50.808;4.402;2022-10-31T00:28:03;15.70;99.90
41876;DHT22;27555;50.808;4.402;2022-10-31T00:30:29;15.70;99.90
41876;DHT22;27555;50.808;4.402;2022-10-31T00:32:54;15.70;99.90
41876;DHT22;27555;50.808;4.402;2022-10-31T00:35:20;15.70;99.90
41876;DHT22;27555;50.808;4.402;2022-10-31T00:37:45;15.60;99.90
41876;DHT22;27555;50.808;4.402;2022-10-31T00:40:11;15.50;99.90
41876;DHT22;27555;50.808;4.402;2022-10-31T00:42:38;15.50;99.90
41876;DHT22;27555;50.808;4.402;2022-10-31T00:45:04;15.50;99.90
41876;DHT22;27555;50.808;4.402;2022-10-31T00:47:30;15.40;99.90
41876;DHT22;27555;50.808;4.402;2022-10-31T00:49:55;15.40;99.90
41876;DHT22;27555;50.808;4.402;2022-10-31T00:52:22;15.30;99.90
41876;DHT22;27555;50.808;4.402;2022-10-31T00:54:48;15.30;99.90
41876;DHT22;27555;50.808;4.402;2022-10-31T00:57:15;15.30;99.90
41876;DHT22;27555;50.808;4.402;2022-10-31T00:59:40;15.20;99.90
41876;DHT22;27555;50.808;4.402;2022-10-31T01:02:06;15.20;99.90
41876;DHT22;27555;50.808;4.402;2022-10-31T01:04:31;15.20;99.90
41876;DHT22;27555;50.808;4.402;2022-10-31T01:06:57;15.10;99.90
41876;DHT22;27555;50.808;4.402;2022-10-31T01:09:23;15.00;99.90
41876;DHT22;27555;50.808;4.402;2022-10-31T01:11:48;15.00;99.90
41876;DHT22;27555;50.808;4.402;2022-10-31T01:14:14;14.90;99.90
41876;DHT22;27555;50.808;4.402;2022-10-31T01:16:39;14.90;99.90
41876;DHT22;27555;50.808;4.402;2022-10-31T01:19:05;15.00;99.90
41876;DHT22;27555;50.808;4.402;2022-10-31T01:21:30;15.10;99.90
41876;DHT22;27555;50.808;4.402;2022-10-31T01:23:56;15.00;99.90
41876;DHT22;27555;50.808;4.402;2022-10-31T01:26:27;14.90;99.90
41876;DHT22;27555;50.808;4.402;2022-10-31T01:28:59;14.90;99.90
41876;DHT22;27555;50.808;4.402;2022-10-31T01:31:30;14.80;99.90
41876;DHT22;27555;50.808;4.402;2022-10-31T01:33:56;14.80;99.90
41876;DHT22;27555;50.808;4.402;2022-10-31T01:38:53;14.70;99.90
41876;DHT22;27555;50.808;4.402;2022-10-31T01:41:24;14.70;99.90
41876;DHT22;27555;50.808;4.402;2022-10-31T01:43:52;14.70;99.90
41876;DHT22;27555;50.808;4.402;2022-10-31T01:46:35;14.70;99.90
41876;DHT22;27555;50.808;4.402;2022-10-31T01:49:09;14.60;99.90
41876;DHT22;27555;50.808;4.402;2022-10-31T01:51:40;14.60;99.90
41876;DHT22;27555;50.808;4.402;2022-10-31T01:54:11;14.60;99.90
41876;DHT22;27555;50.808;4.402;2022-10-31T01:56:40;14.60;99.90
41876;DHT22;27555;50.808;4.402;2022-10-31T01:59:09;14.50;99.90
41876;DHT22;27555;50.808;4.402;2022-10-31T02:01:37;14.40;99.90
41876;DHT22;27555;50.808;4.402;2022-10-31T02:04:03;14.40;99.90
41876;DHT22;27555;50.808;4.402;2022-10-31T02:06:37;14.40;99.90
41876;DHT22;27555;50.808;4.402;2022-10-31T02:09:05;14.40;99.90
41876;DHT22;27555;50.808;4.402;2022-10-31T02:11:33;14.30;99.90
41876;DHT22;27555;50.808;4.402;2022-10-31T02:14:01;14.30;99.90
41876;DHT22;27555;50.808;4.402;2022-10-31T02:16:28;14.20;99.90
41876;DHT22;27555;50.808;4.402;2022-10-31T02:18:54;14.20;99.90
41876;DHT22;27555;50.808;4.402;2022-10-31T02:21:46;14.20;99.90
41876;DHT22;27555;50.808;4.402;2022-10-31T02:30:18;14.20;99.90
41876;DHT22;27555;50.808;4.402;2022-10-31T02:38:29;14.00;99.90
41876;DHT22;27555;50.808;4.402;2022-10-31T02:46:23;13.90;99.90
41876;DHT22;27555;50.808;4.402;2022-10-31T02:48:53;13.90;99.90
41876;DHT22;27555;50.808;4.402;2022-10-31T02:51:20;13.90;99.90
41876;DHT22;27555;50.808;4.402;2022-10-31T02:53:46;13.90;99.90
41876;DHT22;27555;50.808;4.402;2022-10-31T02:56:15;14.00;99.90
41876;DHT22;27555;50.808;4.402;2022-10-31T03:03:57;13.90;99.90
41876;DHT22;27555;50.808;4.402;2022-10-31T03:11:57;13.80;99.90
41876;DHT22;27555;50.808;4.402;2022-10-31T03:14:48;13.80;99.90
41876;DHT22;27555;50.808;4.402;2022-10-31T03:20:14;13.70;99.90
41876;DHT22;27555;50.808;4.402;2022-10-31T03:22:43;13.70;99.90
41876;DHT22;27555;50.808;4.402;2022-10-31T03:25:09;13.60;99.90
41876;DHT22;27555;50.808;4.402;2022-10-31T03:27:37;13.60;99.90
41876;DHT22;27555;50.808;4.402;2022-10-31T03:30:06;13.60;99.90
41876;DHT22;27555;50.808;4.402;2022-10-31T03:32:43;13.60;99.90
41876;DHT22;27555;50.808;4.402;2022-10-31T03:35:11;13.60;99.90
41876;DHT22;27555;50.808;4.402;2022-10-31T03:37:39;13.60;99.90
41876;DHT22;27555;50.808;4.402;2022-10-31T03:40:07;13.50;99.90
41876;DHT22;27555;50.808;4.402;2022-10-31T03:42:40;13.40;99.90
41876;DHT22;27555;50.808;4.402;2022-10-31T03:45:14;13.50;99.90
41876;DHT22;27555;50.808;4.402;2022-10-31T03:47:43;13.50;99.90
41876;DHT22;27555;50.808;4.402;2022-10-31T03:50:10;13.50;99.90
41876;DHT22;27555;50.808;4.402;2022-10-31T03:52:48;13.50;99.90
41876;DHT22;27555;50.808;4.402;2022-10-31T03:55:22;13.50;99.90
41876;DHT22;27555;50.808;4.402;2022-10-31T03:57:56;13.40;99.90
41876;DHT22;27555;50.808;4.402;2022-10-31T04:00:23;13.40;99.90
41876;DHT22;27555;50.808;4.402;2022-10-31T04:03:13;13.40;99.90
41876;DHT22;27555;50.808;4.402;2022-10-31T04:05:39;13.30;99.90
41876;DHT22;27555;50.808;4.402;2022-10-31T04:08:09;13.40;99.90
41876;DHT22;27555;50.808;4.402;2022-10-31T04:10:38;13.30;99.90
41876;DHT22;27555;50.808;4.402;2022-10-31T04:13:12;13.20;99.90
41876;DHT22;27555;50.808;4.402;2022-10-31T04:15:39;13.20;99.90
41876;DHT22;27555;50.808;4.402;2022-10-31T04:18:06;13.20;99.90
41876;DHT22;27555;50.808;4.402;2022-10-31T04:20:38;13.20;99.90
41876;DHT22;27555;50.808;4.402;2022-10-31T04:23:05;13.20;99.90
41876;DHT22;27555;50.808;4.402;2022-10-31T04:25:33;13.20;99.90
41876;DHT22;27555;50.808;4.402;2022-10-31T04:27:59;13.20;99.90
41876;DHT22;27555;50.808;4.402;2022-10-31T04:30:24;13.00;99.90
41876;DHT22;27555;50.808;4.402;2022-10-31T04:32:50;13.10;99.90
41876;DHT22;27555;50.808;4.402;2022-10-31T04:35:16;13.10;99.90
41876;DHT22;27555;50.808;4.402;2022-10-31T04:37:41;13.10;99.90
41876;DHT22;27555;50.808;4.402;2022-10-31T04:40:07;13.20;99.90
41876;DHT22;27555;50.808;4.402;2022-10-31T04:42:33;13.20;99.90
41876;DHT22;27555;50.808;4.402;2022-10-31T04:44:59;13.20;99.90
41876;DHT22;27555;50.808;4.402;2022-10-31T04:47:24;13.10;99.90
41876;DHT22;27555;50.808;4.402;2022-10-31T04:49:50;13.20;99.90
41876;DHT22;27555;50.808;4.402;2022-10-31T04:52:15;13.30;99.90
41876;DHT22;27555;50.808;4.402;2022-10-31T04:54:41;13.20;99.90
41876;DHT22;27555;50.808;4.402;2022-10-31T04:57:07;13.20;99.90
41876;DHT22;27555;50.808;4.402;2022-10-31T04:59:32;13.30;99.90
41876;DHT22;27555;50.808;4.402;2022-10-31T05:01:58;13.20;99.90
41876;DHT22;27555;50.808;4.402;2022-10-31T05:04:23;13.20;99.90
41876;DHT22;27555;50.808;4.402;2022-10-31T05:06:49;13.20;99.90
41876;DHT22;27555;50.808;4.402;2022-10-31T05:09:14;13.10;99.90
41876;DHT22;27555;50.808;4.402;2022-10-31T05:11:40;13.10;99.90
41876;DHT22;27555;50.808;4.402;2022-10-31T05:14:06;13.10;99.90
41876;DHT22;27555;50.808;4.402;2022-10-31T05:16:31;13.10;99.90
41876;DHT22;27555;50.808;4.402;2022-10-31T05:18:57;13.10;99.90
41876;DHT22;27555;50.808;4.402;2022-10-31T05:21:22;13.20;99.90
41876;DHT22;27555;50.808;4.402;2022-10-31T05:23:48;13.30;99.90
41876;DHT22;27555;50.808;4.402;2022-10-31T05:26:14;13.30;99.90
41876;DHT22;27555;50.808;4.402;2022-10-31T05:28:39;13.30;99.90
41876;DHT22;27555;50.808;4.402;2022-10-31T05:31:05;13.40;99.90
41876;DHT22;27555;50.808;4.402;2022-10-31T05:33:30;13.30;99.90
41876;DHT22;27555;50.808;4.402;2022-10-31T05:35:56;13.30;99.90
41876;DHT22;27555;50.808;4.402;2022-10-31T05:38:22;13.40;99.90
41876;DHT22;27555;50.808;4.402;2022-10-31T05:40:47;13.40;99.90
41876;DHT22;27555;50.808;4.402;2022-10-31T05:43:13;13.40;99.90
41876;DHT22;27555;50.808;4.402;2022-10-31T05:45:39;13.30;99.90
41876;DHT22;27555;50.808;4.402;2022-10-31T05:48:05;13.40;99.90
41876;DHT22;27555;50.808;4.402;2022-10-31T05:50:31;13.40;99.90
41876;DHT22;27555;50.808;4.402;2022-10-31T05:53:03;13.60;99.90
41876;DHT22;27555;50.808;4.402;2022-10-31T05:55:30;13.60;99.90
41876;DHT22;27555;50.808;4.402;2022-10-31T05:57:56;13.60;99.90
41876;DHT22;27555;50.808;4.402;2022-10-31T06:00:23;13.50;99.90
41876;DHT22;27555;50.808;4.402;2022-10-31T06:02:49;13.50;99.90
41876;DHT22;27555;50.808;4.402;2022-10-31T06:05:15;13.60;99.90
41876;DHT22;27555;50.808;4.402;2022-10-31T06:07:41;13.60;99.90
41876;DHT22;27555;50.808;4.402;2022-10-31T06:10:08;13.70;99.90
41876;DHT22;27555;50.808;4.402;2022-10-31T06:12:35;13.80;99.90
41876;DHT22;27555;50.808;4.402;2022-10-31T06:15:04;13.80;99.90
41876;DHT22;27555;50.808;4.402;2022-10-31T06:17:31;13.90;99.90
41876;DHT22;27555;50.808;4.402;2022-10-31T06:19:56;13.90;99.90
41876;DHT22;27555;50.808;4.402;2022-10-31T06:22:22;13.80;99.90
41876;DHT22;27555;50.808;4.402;2022-10-31T06:24:48;13.90;99.90
41876;DHT22;27555;50.808;4.402;2022-10-31T06:27:13;13.90;99.90
41876;DHT22;27555;50.808;4.402;2022-10-31T06:29:39;13.90;99.90
41876;DHT22;27555;50.808;4.402;2022-10-31T06:32:05;13.90;99.90
41876;DHT22;27555;50.808;4.402;2022-10-31T06:34:30;13.90;99.90
41876;DHT22;27555;50.808;4.402;2022-10-31T06:36:56;14.00;99.90
41876;DHT22;27555;50.808;4.402;2022-10-31T06:39:21;14.00;99.90
41876;DHT22;27555;50.808;4.402;2022-10-31T06:41:48;14.00;99.90
41876;DHT22;27555;50.808;4.402;2022-10-31T06:44:13;14.00;99.90
41876;DHT22;27555;50.808;4.402;2022-10-31T06:46:39;14.00;99.90
41876;DHT22;27555;50.808;4.402;2022-10-31T06:49:04;14.00;99.90
41876;DHT22;27555;50.808;4.402;2022-10-31T06:51:30;14.00;99.90
41876;DHT22;27555;50.808;4.402;2022-10-31T06:53:56;14.00;99.90
41876;DHT22;27555;50.808;4.402;2022-10-31T06:56:21;14.10;99.90
41876;DHT22;27555;50.808;4.402;2022-10-31T06:58:47;14.20;99.90
41876;DHT22;27555;50.808;4.402;2022-10-31T07:01:12;14.00;99.90
41876;DHT22;27555;50.808;4.402;2022-10-31T07:03:38;14.00;99.90
41876;DHT22;27555;50.808;4.402;2022-10-31T07:06:04;14.00;99.90
41876;DHT22;27555;50.808;4.402;2022-10-31T07:08:30;14.20;99.90
41876;DHT22;27555;50.808;4.402;2022-10-31T07:10:57;14.30;99.90
41876;DHT22;27555;50.808;4.402;2022-10-31T07:13:23;14.40;99.90
41876;DHT22;27555;50.808;4.402;2022-10-31T07:15:59;14.40;99.90
41876;DHT22;27555;50.808;4.402;2022-10-31T07:18:25;14.40;99.90
41876;DHT22;27555;50.808;4.402;2022-10-31T07:20:52;14.30;99.90
41876;DHT22;27555;50.808;4.402;2022-10-31T07:23:18;14.40;99.90
41876;DHT22;27555;50.808;4.402;2022-10-31T07:25:44;14.50;99.90
41876;DHT22;27555;50.808;4.402;2022-10-31T07:28:10;14.70;99.90
41876;DHT22;27555;50.808;4.402;2022-10-31T07:30:37;14.80;99.90
41876;DHT22;27555;50.808;4.402;2022-10-31T07:33:03;15.00;99.90
41876;DHT22;27555;50.808;4.402;2022-10-31T07:35:30;15.00;99.90
41876;DHT22;27555;50.808;4.402;2022-10-31T07:37:55;15.20;99.90
41876;DHT22;27555;50.808;4.402;2022-10-31T07:40:22;15.30;99.90
41876;DHT22;27555;50.808;4.402;2022-10-31T07:42:51;15.20;99.90
41876;DHT22;27555;50.808;4.402;2022-10-31T07:45:19;15.20;99.90
41876;DHT22;27555;50.808;4.402;2022-10-31T07:47:47;15.10;99.90
41876;DHT22;27555;50.808;4.402;2022-10-31T07:50:17;15.20;99.90
41876;DHT22;27555;50.808;4.402;2022-10-31T07:52:44;15.20;99.90
41876;DHT22;27555;50.808;4.402;2022-10-31T07:55:10;15.30;99.90
41876;DHT22;27555;50.808;4.402;2022-10-31T07:57:36;15.30;99.90
41876;DHT22;27555;50.808;4.402;2022-10-31T08:00:06;15.40;99.90
41876;DHT22;27555;50.808;4.402;2022-10-31T08:02:32;15.40;99.90
41876;DHT22;27555;50.808;4.402;2022-10-31T08:04:58;15.40;99.90
41876;DHT22;27555;50.808;4.402;2022-10-31T08:07:25;15.50;99.90
41876;DHT22;27555;50.808;4.402;2022-10-31T08:09:51;15.30;99.90
41876;DHT22;27555;50.808;4.402;2022-10-31T08:12:16;15.30;99.90
41876;DHT22;27555;50.808;4.402;2022-10-31T08:14:42;15.50;99.90
41876;DHT22;27555;50.808;4.402;2022-10-31T08:17:08;15.60;99.90
41876;DHT22;27555;50.808;4.402;2022-10-31T08:19:33;15.80;99.90
41876;DHT22;27555;50.808;4.402;2022-10-31T08:21:59;15.90;99.90
41876;DHT22;27555;50.808;4.402;2022-10-31T08:24:25;15.90;99.90
41876;DHT22;27555;50.808;4.402;2022-10-31T08:26:51;16.00;99.90
41876;DHT22;27555;50.808;4.402;2022-10-31T08:29:17;16.10;99.90
41876;DHT22;27555;50.808;4.402;2022-10-31T08:31:42;16.10;99.90
41876;DHT22;27555;50.808;4.402;2022-10-31T08:34:08;16.00;99.90
41876;DHT22;27555;50.808;4.402;2022-10-31T08:36:34;15.90;99.90
41876;DHT22;27555;50.808;4.402;2022-10-31T08:39:00;15.70;99.90
41876;DHT22;27555;50.808;4.402;2022-10-31T08:41:25;15.50;99.90
41876;DHT22;27555;50.808;4.402;2022-10-31T08:43:51;15.30;99.90
41876;DHT22;27555;50.808;4.402;2022-10-31T08:46:17;15.00;99.90
41876;DHT22;27555;50.808;4.402;2022-10-31T08:48:42;15.20;99.90
41876;DHT22;27555;50.808;4.402;2022-10-31T08:51:09;15.70;99.90
41876;DHT22;27555;50.808;4.402;2022-10-31T08:53:35;15.90;99.90
41876;DHT22;27555;50.808;4.402;2022-10-31T08:56:01;16.00;99.90
41876;DHT22;27555;50.808;4.402;2022-10-31T08:58:26;16.10;99.90
41876;DHT22;27555;50.808;4.402;2022-10-31T09:00:53;16.20;99.90
41876;DHT22;27555;50.808;4.402;2022-10-31T09:03:29;16.40;99.90
41876;DHT22;27555;50.808;4.402;2022-10-31T09:05:57;16.40;99.90
41876;DHT22;27555;50.808;4.402;2022-10-31T09:08:23;16.50;99.90
41876;DHT22;27555;50.808;4.402;2022-10-31T09:10:49;16.60;99.90
41876;DHT22;27555;50.808;4.402;2022-10-31T09:13:17;16.70;99.90
41876;DHT22;27555;50.808;4.402;2022-10-31T09:15:45;16.80;99.90
41876;DHT22;27555;50.808;4.402;2022-10-31T09:18:12;16.80;99.90
41876;DHT22;27555;50.808;4.402;2022-10-31T09:20:39;16.80;99.90
41876;DHT22;27555;50.808;4.402;2022-10-31T09:23:08;16.80;99.90
41876;DHT22;27555;50.808;4.402;2022-10-31T09:25:35;16.70;99.90
41876;DHT22;27555;50.808;4.402;2022-10-31T09:28:02;16.80;99.90
41876;DHT22;27555;50.808;4.402;2022-10-31T09:30:30;16.90;99.90
41876;DHT22;27555;50.808;4.402;2022-10-31T09:32:58;16.80;99.90
41876;DHT22;27555;50.808;4.402;2022-10-31T09:35:24;16.90;99.90
41876;DHT22;27555;50.808;4.402;2022-10-31T09:37:56;16.80;99.90
41876;DHT22;27555;50.808;4.402;2022-10-31T09:40:28;16.80;99.90
41876;DHT22;27555;50.808;4.402;2022-10-31T09:43:01;16.90;99.90
41876;DHT22;27555;50.808;4.402;2022-10-31T09:45:59;16.90;99.90
41876;DHT22;27555;50.808;4.402;2022-10-31T09:51:20;16.90;99.90
41876;DHT22;27555;50.808;4.402;2022-10-31T09:56:16;17.00;99.90
41876;DHT22;27555;50.808;4.402;2022-10-31T09:58:46;17.10;99.90
41876;DHT22;27555;50.808;4.402;2022-10-31T10:01:45;17.30;99.90
41876;DHT22;27555;50.808;4.402;2022-10-31T10:06:42;17.60;99.90
41876;DHT22;27555;50.808;4.402;2022-10-31T10:09:09;17.60;99.90
41876;DHT22;27555;50.808;4.402;2022-10-31T10:14:15;17.70;99.90
41876;DHT22;27555;50.808;4.402;2022-10-31T10:17:11;17.80;99.90
41876;DHT22;27555;50.808;4.402;2022-10-31T10:30:42;18.10;99.90
41876;DHT22;27555;50.808;4.402;2022-10-31T10:33:18;18.10;99.90
41876;DHT22;27555;50.808;4.402;2022-10-31T10:35:50;17.70;99.90
41876;DHT22;27555;50.808;4.402;2022-10-31T10:38:36;17.70;99.90
41876;DHT22;27555;50.808;4.402;2022-10-31T10:41:06;17.80;99.90
41876;DHT22;27555;50.808;4.402;2022-10-31T10:43:36;17.90;99.90
41876;DHT22;27555;50.808;4.402;2022-10-31T10:59:52;17.90;99.90
41876;DHT22;27555;50.808;4.402;2022-10-31T11:02:25;18.20;99.90
41876;DHT22;27555;50.808;4.402;2022-10-31T11:04:54;18.10;99.90
41876;DHT22;27555;50.808;4.402;2022-10-31T11:07:20;18.10;99.90
41876;DHT22;27555;50.808;4.402;2022-10-31T11:09:46;18.10;99.90
41876;DHT22;27555;50.808;4.402;2022-10-31T11:12:32;18.20;99.90
41876;DHT22;27555;50.808;4.402;2022-10-31T11:15:05;18.40;99.90
41876;DHT22;27555;50.808;4.402;2022-10-31T11:17:35;18.60;99.90
41876;DHT22;27555;50.808;4.402;2022-10-31T11:22:44;18.80;99.90
41876;DHT22;27555;50.808;4.402;2022-10-31T11:27:45;19.00;99.90
41876;DHT22;27555;50.808;4.402;2022-10-31T11:30:13;19.10;99.90
41876;DHT22;27555;50.808;4.402;2022-10-31T11:32:50;19.20;99.90
41876;DHT22;27555;50.808;4.402;2022-10-31T11:35:19;19.10;99.90
41876;DHT22;27555;50.808;4.402;2022-10-31T11:37:48;19.10;99.90
41876;DHT22;27555;50.808;4.402;2022-10-31T11:40:26;19.20;99.90
41876;DHT22;27555;50.808;4.402;2022-10-31T11:42:54;18.90;99.90
41876;DHT22;27555;50.808;4.402;2022-10-31T11:45:28;19.00;99.90
41876;DHT22;27555;50.808;4.402;2022-10-31T11:47:56;19.10;99.90
41876;DHT22;27555;50.808;4.402;2022-10-31T11:50:34;19.30;99.90
41876;DHT22;27555;50.808;4.402;2022-10-31T11:53:02;19.40;99.90
41876;DHT22;27555;50.808;4.402;2022-10-31T11:55:34;19.50;99.90
41876;DHT22;27555;50.808;4.402;2022-10-31T11:58:01;19.90;99.90
41876;DHT22;27555;50.808;4.402;2022-10-31T12:00:28;20.30;99.90
41876;DHT22;27555;50.808;4.402;2022-10-31T12:06:00;21.20;99.90
41876;DHT22;27555;50.808;4.402;2022-10-31T12:08:29;21.20;99.90
41876;DHT22;27555;50.808;4.402;2022-10-31T12:16:22;23.50;99.90
41876;DHT22;27555;50.808;4.402;2022-10-31T12:33:02;24.70;99.00
41876;DHT22;27555;50.808;4.402;2022-10-31T12:38:46;25.30;98.50
41876;DHT22;27555;50.808;4.402;2022-10-31T12:57:57;22.10;99.90
41876;DHT22;27555;50.808;4.402;2022-10-31T13:00:26;21.90;99.90
41876;DHT22;27555;50.808;4.402;2022-10-31T13:02:56;21.90;99.90
41876;DHT22;27555;50.808;4.402;2022-10-31T13:05:31;21.90;99.90
41876;DHT22;27555;50.808;4.402;2022-10-31T13:10:44;21.40;99.90
41876;DHT22;27555;50.808;4.402;2022-10-31T13:13:27;21.20;99.90
41876;DHT22;27555;50.808;4.402;2022-10-31T13:15:59;21.10;99.90
41876;DHT22;27555;50.808;4.402;2022-10-31T13:18:31;21.10;99.90
41876;DHT22;27555;50.808;4.402;2022-10-31T13:20:59;20.90;99.90
41876;DHT22;27555;50.808;4.402;2022-10-31T13:23:35;20.80;99.90
41876;DHT22;27555;50.808;4.402;2022-10-31T13:26:14;20.80;99.90
41876;DHT22;27555;50.808;4.402;2022-10-31T13:28:54;20.40;99.90
41876;DHT22;27555;50.808;4.402;2022-10-31T13:31:22;20.50;99.90
41876;DHT22;27555;50.808;4.402;2022-10-31T13:36:38;20.40;99.90
41876;DHT22;27555;50.808;4.402;2022-10-31T13:41:57;20.70;99.90
41876;DHT22;27555;50.808;4.402;2022-10-31T13:44:26;20.60;99.90
41876;DHT22;27555;50.808;4.402;2022-10-31T13:46:54;20.70;99.90
41876;DHT22;27555;50.808;4.402;2022-10-31T13:49:37;20.30;99.90
41876;DHT22;27555;50.808;4.402;2022-10-31T13:52:21;20.10;99.90
41876;DHT22;27555;50.808;4.402;2022-10-31T13:54:50;20.20;99.90
41876;DHT22;27555;50.808;4.402;2022-10-31T13:57:42;20.40;99.90
41876;DHT22;27555;50.808;4.402;2022-10-31T14:00:23;20.60;99.90
41876;DHT22;27555;50.808;4.402;2022-10-31T14:02:51;20.60;99.90
41876;DHT22;27555;50.808;4.402;2022-10-31T14:07:53;20.50;99.90
41876;DHT22;27555;50.808;4.402;2022-10-31T14:10:34;20.60;99.90
41876;DHT22;27555;50.808;4.402;2022-10-31T14:18:24;20.40;99.90
41876;DHT22;27555;50.808;4.402;2022-10-31T14:20:50;20.30;99.90
41876;DHT22;27555;50.808;4.402;2022-10-31T14:28:45;20.40;99.90
41876;DHT22;27555;50.808;4.402;2022-10-31T14:34:01;20.10;99.90
41876;DHT22;27555;50.808;4.402;2022-10-31T14:41:55;20.20;99.90
41876;DHT22;27555;50.808;4.402;2022-10-31T14:44:54;20.20;99.90
41876;DHT22;27555;50.808;4.402;2022-10-31T14:47:44;20.20;99.90
41876;DHT22;27555;50.808;4.402;2022-10-31T14:50:36;20.20;99.90
41876;DHT22;27555;50.808;4.402;2022-10-31T14:53:05;20.10;99.90
41876;DHT22;27555;50.808;4.402;2022-10-31T14:55:31;20.10;99.90
41876;DHT22;27555;50.808;4.402;2022-10-31T14:58:02;20.10;99.90
41876;DHT22;27555;50.808;4.402;2022-10-31T15:00:31;20.00;99.90
41876;DHT22;27555;50.808;4.402;2022-10-31T15:03:21;19.90;99.90
41876;DHT22;27555;50.808;4.402;2022-10-31T15:06:00;19.90;99.90
41876;DHT22;27555;50.808;4.402;2022-10-31T15:08:38;19.90;99.90
41876;DHT22;27555;50.808;4.402;2022-10-31T15:11:11;19.70;99.90
41876;DHT22;27555;50.808;4.402;2022-10-31T15:13:54;19.60;99.90
41876;DHT22;27555;50.808;4.402;2022-10-31T15:16:36;19.50;99.90
41876;DHT22;27555;50.808;4.402;2022-10-31T15:19:05;19.50;99.90
41876;DHT22;27555;50.808;4.402;2022-10-31T15:21:31;19.40;99.90
41876;DHT22;27555;50.808;4.402;2022-10-31T15:24:00;19.30;99.90
41876;DHT22;27555;50.808;4.402;2022-10-31T15:26:32;19.40;99.90
41876;DHT22;27555;50.808;4.402;2022-10-31T15:29:04;19.40;99.90
41876;DHT22;27555;50.808;4.402;2022-10-31T15:31:31;19.20;99.90
41876;DHT22;27555;50.808;4.402;2022-10-31T15:34:06;19.20;99.90
41876;DHT22;27555;50.808;4.402;2022-10-31T15:36:32;19.20;99.90
41876;DHT22;27555;50.808;4.402;2022-10-31T15:38:58;19.30;99.90
41876;DHT22;27555;50.808;4.402;2022-10-31T15:41:28;19.30;99.90
41876;DHT22;27555;50.808;4.402;2022-10-31T15:43:58;19.20;99.90
41876;DHT22;27555;50.808;4.402;2022-10-31T15:46:25;19.10;99.90
41876;DHT22;27555;50.808;4.402;2022-10-31T15:48:52;19.10;99.90
41876;DHT22;27555;50.808;4.402;2022-10-31T15:51:25;19.00;99.90
41876;DHT22;27555;50.808;4.402;2022-10-31T15:53:52;18.80;99.90
41876;DHT22;27555;50.808;4.402;2022-10-31T15:56:22;18.80;99.90
41876;DHT22;27555;50.808;4.402;2022-10-31T15:58:50;18.70;99.90
41876;DHT22;27555;50.808;4.402;2022-10-31T16:06:23;18.70;99.90
41876;DHT22;27555;50.808;4.402;2022-10-31T16:08:50;18.70;99.90
41876;DHT22;27555;50.808;4.402;2022-10-31T16:11:29;18.60;99.90
41876;DHT22;27555;50.808;4.402;2022-10-31T16:16:49;18.50;99.90
41876;DHT22;27555;50.808;4.402;2022-10-31T16:21:47;18.30;99.90
41876;DHT22;27555;50.808;4.402;2022-10-31T16:24:26;18.30;99.90
41876;DHT22;27555;50.808;4.402;2022-10-31T16:27:03;18.30;99.90
41876;DHT22;27555;50.808;4.402;2022-10-31T16:29:42;18.20;99.90
41876;DHT22;27555;50.808;4.402;2022-10-31T16:37:33;17.90;99.90
41876;DHT22;27555;50.808;4.402;2022-10-31T16:39:59;17.80;99.90
41876;DHT22;27555;50.808;4.402;2022-10-31T16:42:24;17.70;99.90
41876;DHT22;27555;50.808;4.402;2022-10-31T16:44:51;17.60;99.90
41876;DHT22;27555;50.808;4.402;2022-10-31T16:47:18;17.60;99.90
41876;DHT22;27555;50.808;4.402;2022-10-31T16:49:48;17.50;99.90
41876;DHT22;27555;50.808;4.402;2022-10-31T16:52:15;17.50;99.90
41876;DHT22;27555;50.808;4.402;2022-10-31T16:54:41;17.30;99.90
41876;DHT22;27555;50.808;4.402;2022-10-31T16:57:06;17.30;99.90
41876;DHT22;27555;50.808;4.402;2022-10-31T16:59:36;17.20;99.90
41876;DHT22;27555;50.808;4.402;2022-10-31T17:02:03;17.20;99.90
41876;DHT22;27555;50.808;4.402;2022-10-31T17:04:29;17.10;99.90
41876;DHT22;27555;50.808;4.402;2022-10-31T17:06:54;17.00;99.90
41876;DHT22;27555;50.808;4.402;2022-10-31T17:09:20;17.00;99.90
41876;DHT22;27555;50.808;4.402;2022-10-31T17:11:48;17.00;99.90
41876;DHT22;27555;50.808;4.402;2022-10-31T17:14:15;16.90;99.90
41876;DHT22;27555;50.808;4.402;2022-10-31T17:16:40;16.90;99.90
41876;DHT22;27555;50.808;4.402;2022-10-31T17:19:09;16.80;99.90
41876;DHT22;27555;50.808;4.402;2022-10-31T17:21:35;16.80;99.90
41876;DHT22;27555;50.808;4.402;2022-10-31T17:24:01;16.70;99.90
41876;DHT22;27555;50.808;4.402;2022-10-31T17:26:26;16.70;99.90
41876;DHT22;27555;50.808;4.402;2022-10-31T17:28:52;16.70;99.90
41876;DHT22;27555;50.808;4.402;2022-10-31T17:31:21;16.70;99.90
41876;DHT22;27555;50.808;4.402;2022-10-31T17:33:48;16.70;99.90
41876;DHT22;27555;50.808;4.402;2022-10-31T17:36:13;16.70;99.90
41876;DHT22;27555;50.808;4.402;2022-10-31T17:38:39;16.80;99.90
41876;DHT22;27555;50.808;4.402;2022-10-31T17:41:06;17.00;99.90
41876;DHT22;27555;50.808;4.402;2022-10-31T17:43:32;17.40;99.90
41876;DHT22;27555;50.808;4.402;2022-10-31T17:46:00;17.10;99.90
41876;DHT22;27555;50.808;4.402;2022-10-31T17:48:27;17.10;99.90
41876;DHT22;27555;50.808;4.402;2022-10-31T17:50:52;17.10;99.90
41876;DHT22;27555;50.808;4.402;2022-10-31T17:53:18;17.10;99.90
41876;DHT22;27555;50.808;4.402;2022-10-31T17:55:44;17.00;99.90
41876;DHT22;27555;50.808;4.402;2022-10-31T17:58:09;17.10;99.90
41876;DHT22;27555;50.808;4.402;2022-10-31T18:00:38;17.10;99.90
41876;DHT22;27555;50.808;4.402;2022-10-31T18:03:04;17.10;99.90
41876;DHT22;27555;50.808;4.402;2022-10-31T18:05:29;17.40;99.90
41876;DHT22;27555;50.808;4.402;2022-10-31T18:07:55;17.60;99.90
41876;DHT22;27555;50.808;4.402;2022-10-31T18:10:21;17.70;99.90
41876;DHT22;27555;50.808;4.402;2022-10-31T18:12:46;17.40;99.90
41876;DHT22;27555;50.808;4.402;2022-10-31T18:15:13;17.40;99.90
41876;DHT22;27555;50.808;4.402;2022-10-31T18:17:39;17.30;99.90
41876;DHT22;27555;50.808;4.402;2022-10-31T18:20:05;17.30;99.90
41876;DHT22;27555;50.808;4.402;2022-10-31T18:22:31;17.30;99.90